createdAt,value
2017-05-28T00:00:23.798Z,19.20
2017-05-28T00:02:52.846Z,19.20
2017-05-28T00:05:21.935Z,19.20
2017-05-28T00:07:51.001Z,19.20
2017-05-28T00:10:20.123Z,19.10
2017-05-28T00:12:49.191Z,19.20
2017-05-28T00:15:18.420Z,19.10
2017-05-28T00:17:47.483Z,19.10
2017-05-28T00:20:16.562Z,19.00
2017-05-28T00:22:45.650Z,19.10
2017-05-28T00:25:14.718Z,19.00
2017-05-28T00:27:43.914Z,19.10
2017-05-28T00:30:12.972Z,19.10
2017-05-28T00:32:42.035Z,19.10
2017-05-28T00:35:11.143Z,19.10
2017-05-28T00:37:40.207Z,19.10
2017-05-28T00:40:09.295Z,19.20
2017-05-28T00:42:38.375Z,19.20
2017-05-28T00:45:07.655Z,19.10
2017-05-28T00:47:36.711Z,19.10
2017-05-28T00:50:05.774Z,19.20
2017-05-28T00:52:34.868Z,19.10
2017-05-28T00:55:03.919Z,19.10
2017-05-28T00:57:33.392Z,19.10
2017-05-28T01:00:02.446Z,19.10
2017-05-28T01:02:31.502Z,19.00
2017-05-28T01:05:00.807Z,19.00
2017-05-28T01:07:29.871Z,19.00
2017-05-28T01:09:59.071Z,19.00
2017-05-28T01:12:28.145Z,19.00
2017-05-28T01:14:57.194Z,18.90
2017-05-28T01:17:26.309Z,18.90
2017-05-28T01:19:55.381Z,18.80
2017-05-28T01:22:24.477Z,18.80
2017-05-28T01:24:53.553Z,18.60
2017-05-28T01:27:22.627Z,18.60
2017-05-28T01:29:51.735Z,18.60
2017-05-28T01:32:20.898Z,18.50
2017-05-28T01:34:49.970Z,18.40
2017-05-28T01:37:19.049Z,18.40
2017-05-28T01:39:48.614Z,18.30
2017-05-28T01:42:17.679Z,18.30
2017-05-28T01:44:46.747Z,18.30
2017-05-28T01:47:16.212Z,18.20
2017-05-28T01:49:45.272Z,18.20
2017-05-28T01:52:14.333Z,18.20
2017-05-28T01:54:43.519Z,18.10
2017-05-28T01:57:12.596Z,18.10
2017-05-28T01:59:41.663Z,18.10
2017-05-28T02:02:10.746Z,18.10
2017-05-28T02:04:39.842Z,18.10
2017-05-28T02:07:09.183Z,18.10
2017-05-28T02:09:38.251Z,18.00
2017-05-28T02:12:07.313Z,18.00
2017-05-28T02:14:36.409Z,18.00
2017-05-28T02:17:05.507Z,18.00
2017-05-28T02:19:34.699Z,18.00
2017-05-28T02:22:03.770Z,18.00
2017-05-28T02:24:32.828Z,18.00
2017-05-28T02:27:01.916Z,18.00
2017-05-28T02:29:30.976Z,18.00
2017-05-28T02:32:00.063Z,17.90
2017-05-28T02:34:29.128Z,17.90
2017-05-28T02:36:58.349Z,17.90
2017-05-28T02:39:27.424Z,17.90
2017-05-28T02:41:56.487Z,17.90
2017-05-28T02:44:25.576Z,17.90
2017-05-28T02:46:54.639Z,17.80
2017-05-28T02:49:23.871Z,17.80
2017-05-28T02:51:52.946Z,17.80
2017-05-28T02:54:22.013Z,17.80
2017-05-28T02:56:51.210Z,17.80
2017-05-28T02:59:20.287Z,17.80
2017-05-28T03:01:49.370Z,17.80
2017-05-28T03:04:18.459Z,17.80
2017-05-28T03:06:47.532Z,17.80
2017-05-28T03:09:16.764Z,17.80
2017-05-28T03:11:45.843Z,17.80
2017-05-28T03:14:14.904Z,17.80
2017-05-28T03:16:44.003Z,17.80
2017-05-28T03:19:13.071Z,17.80
2017-05-28T03:21:42.267Z,17.80
2017-05-28T03:24:11.335Z,17.80
2017-05-28T03:26:40.406Z,17.80
2017-05-28T03:29:09.712Z,17.90
2017-05-28T03:31:38.767Z,17.80
2017-05-28T03:34:07.848Z,17.80
2017-05-28T03:36:36.935Z,17.90
2017-05-28T03:39:06.006Z,17.90
2017-05-28T03:41:35.282Z,17.90
2017-05-28T03:44:04.351Z,18.00
2017-05-28T03:46:33.426Z,18.00
2017-05-28T03:49:02.507Z,18.10
2017-05-28T03:51:31.585Z,18.20
2017-05-28T03:54:01.018Z,18.30
2017-05-28T03:56:30.086Z,18.30
2017-05-28T03:58:59.162Z,18.40
2017-05-28T04:01:28.252Z,18.50
2017-05-28T04:03:57.330Z,18.50
2017-05-28T04:06:26.411Z,18.60
2017-05-28T04:08:55.483Z,18.70
2017-05-28T04:11:24.667Z,18.70
2017-05-28T04:13:53.711Z,18.70
2017-05-28T04:16:22.785Z,18.70
2017-05-28T04:18:51.874Z,18.80
2017-05-28T04:21:20.953Z,18.80
2017-05-28T04:23:50.042Z,18.80
2017-05-28T04:26:19.120Z,18.80
2017-05-28T04:28:48.495Z,18.90
2017-05-28T04:31:17.567Z,18.90
2017-05-28T04:33:46.627Z,18.90
2017-05-28T04:36:15.730Z,18.90
2017-05-28T04:38:45.100Z,18.90
2017-05-28T04:41:14.578Z,18.90
2017-05-28T04:43:43.656Z,18.90
2017-05-28T04:46:12.723Z,19.00
2017-05-28T04:48:41.823Z,19.00
2017-05-28T04:51:10.903Z,19.00
2017-05-28T04:53:40.104Z,19.10
2017-05-28T04:56:09.194Z,19.20
2017-05-28T04:58:38.274Z,19.20
2017-05-28T05:01:07.363Z,19.30
2017-05-28T05:03:36.438Z,19.40
2017-05-28T05:06:05.655Z,19.50
2017-05-28T05:08:34.714Z,19.60
2017-05-28T05:11:03.775Z,19.60
2017-05-28T05:13:32.982Z,19.70
2017-05-28T05:16:02.063Z,19.80
2017-05-28T05:18:31.155Z,19.80
2017-05-28T05:21:00.621Z,19.90
2017-05-28T05:23:29.691Z,20.00
2017-05-28T05:25:58.772Z,20.00
2017-05-28T05:28:27.869Z,20.10
2017-05-28T05:30:56.982Z,20.20
2017-05-28T05:33:26.506Z,20.20
2017-05-28T05:35:55.604Z,20.30
2017-05-28T05:38:24.677Z,20.40
2017-05-28T05:40:53.779Z,20.50
2017-05-28T05:43:22.843Z,20.60
2017-05-28T05:45:52.057Z,20.70
2017-05-28T05:48:21.144Z,20.80
2017-05-28T05:50:50.240Z,20.90
2017-05-28T05:53:20.343Z,21.00
2017-05-28T05:55:49.424Z,21.10
2017-05-28T05:58:18.523Z,21.20
2017-05-28T06:00:47.647Z,21.30
2017-05-28T06:03:16.723Z,21.50
2017-05-28T06:05:45.827Z,21.60
2017-05-28T06:08:14.899Z,21.80
2017-05-28T06:10:44.113Z,21.90
2017-05-28T06:13:13.176Z,22.10
2017-05-28T06:15:42.236Z,22.20
2017-05-28T06:18:11.318Z,22.40
2017-05-28T06:20:40.403Z,22.50
2017-05-28T06:23:09.596Z,22.60
2017-05-28T06:25:38.686Z,22.80
2017-05-28T06:28:07.763Z,23.00
2017-05-28T06:30:37.007Z,23.10
2017-05-28T06:33:06.087Z,23.20
2017-05-28T06:35:35.159Z,23.30
2017-05-28T06:38:04.259Z,23.30
2017-05-28T06:40:33.331Z,23.40
2017-05-28T06:43:02.591Z,23.50
2017-05-28T06:45:31.761Z,23.50
2017-05-28T06:48:00.871Z,23.60
2017-05-28T06:50:30.378Z,23.80
2017-05-28T06:52:59.457Z,24.00
2017-05-28T06:55:35.983Z,24.20
2017-05-28T06:58:05.065Z,24.40
2017-05-28T07:00:34.179Z,24.60
2017-05-28T07:03:03.250Z,24.80
2017-05-28T07:05:32.307Z,24.80
2017-05-28T07:08:01.437Z,24.90
2017-05-28T07:10:30.516Z,24.90
2017-05-28T07:12:59.616Z,24.70
2017-05-28T07:15:28.711Z,24.60
2017-05-28T07:17:58.124Z,24.60
2017-05-28T07:20:27.206Z,24.70
2017-05-28T07:22:56.279Z,24.60
2017-05-28T07:25:25.376Z,24.60
2017-05-28T07:27:54.463Z,24.60
2017-05-28T07:30:23.995Z,24.60
2017-05-28T07:32:53.069Z,24.70
2017-05-28T07:35:22.144Z,24.80
2017-05-28T07:37:51.241Z,24.90
2017-05-28T07:40:20.333Z,25.10
2017-05-28T07:42:48.843Z,25.00
2017-05-28T07:45:17.921Z,25.60
2017-05-28T07:47:47.001Z,26.00
2017-05-28T07:50:16.121Z,26.20
2017-05-28T07:52:50.852Z,26.50
2017-05-28T07:55:19.986Z,26.80
2017-05-28T07:57:49.072Z,27.10
2017-05-28T08:00:18.199Z,27.20
2017-05-28T08:02:47.289Z,27.10
2017-05-28T08:05:16.499Z,27.20
2017-05-28T08:07:45.572Z,27.20
2017-05-28T08:10:14.674Z,27.30
2017-05-28T08:12:43.791Z,27.10
2017-05-28T08:15:12.870Z,26.80
2017-05-28T08:17:41.967Z,26.80
2017-05-28T08:20:11.052Z,26.50
2017-05-28T08:22:40.276Z,26.30
2017-05-28T08:25:09.357Z,26.20
2017-05-28T08:27:38.440Z,26.30
2017-05-28T08:30:07.561Z,26.40
2017-05-28T08:32:36.685Z,26.40
2017-05-28T08:35:05.912Z,26.50
2017-05-28T08:37:35.010Z,26.60
2017-05-28T08:40:04.111Z,26.70
2017-05-28T08:42:33.345Z,26.80
2017-05-28T08:45:02.415Z,26.80
2017-05-28T08:47:31.491Z,26.80
2017-05-28T08:50:00.606Z,27.00
2017-05-28T08:52:29.695Z,26.90
2017-05-28T08:54:59.051Z,27.00
2017-05-28T08:57:28.121Z,27.20
2017-05-28T08:59:57.215Z,27.40
2017-05-28T09:02:26.415Z,27.40
2017-05-28T09:04:55.532Z,27.50
2017-05-28T09:07:24.649Z,27.70
2017-05-28T09:09:53.872Z,28.00
2017-05-28T09:12:22.940Z,28.30
2017-05-28T09:14:52.040Z,28.60
2017-05-28T09:17:21.722Z,28.40
2017-05-28T09:19:51.038Z,28.20
2017-05-28T09:22:20.257Z,28.40
2017-05-28T09:24:49.380Z,28.60
2017-05-28T09:27:18.483Z,28.60
2017-05-28T09:29:48.132Z,28.90
2017-05-28T09:32:17.215Z,29.00
2017-05-28T09:34:46.331Z,29.10
2017-05-28T09:37:15.557Z,29.40
2017-05-28T09:39:44.634Z,29.50
2017-05-28T09:42:13.756Z,29.50
2017-05-28T09:44:42.881Z,29.30
2017-05-28T09:47:11.948Z,29.10
2017-05-28T09:49:41.057Z,29.30
2017-05-28T09:52:10.150Z,29.30
2017-05-28T09:54:40.005Z,29.30
2017-05-28T09:57:09.126Z,29.50
2017-05-28T09:59:38.236Z,29.30
2017-05-28T10:02:07.350Z,29.20
2017-05-28T10:04:36.450Z,29.10
2017-05-28T10:07:05.708Z,29.40
2017-05-28T10:09:34.798Z,29.40
2017-05-28T10:12:04.190Z,29.60
2017-05-28T10:14:33.302Z,29.60
2017-05-28T10:17:02.390Z,29.70
2017-05-28T10:19:31.599Z,29.80
2017-05-28T10:22:00.750Z,29.60
2017-05-28T10:24:29.825Z,29.40
2017-05-28T10:26:58.940Z,29.20
2017-05-28T10:29:28.032Z,28.90
2017-05-28T10:31:57.361Z,28.90
2017-05-28T10:34:26.432Z,28.80
2017-05-28T10:36:55.557Z,29.00
2017-05-28T10:39:24.923Z,29.10
2017-05-28T10:41:54.019Z,29.30
2017-05-28T10:44:23.117Z,29.50
2017-05-28T10:46:52.227Z,29.70
2017-05-28T10:49:21.515Z,29.90
2017-05-28T10:51:50.611Z,30.00
2017-05-28T10:54:19.712Z,30.20
2017-05-28T10:56:48.819Z,30.40
2017-05-28T10:59:17.913Z,30.70
2017-05-28T11:01:47.131Z,30.80
2017-05-28T11:04:16.251Z,31.00
2017-05-28T11:06:45.380Z,31.10
2017-05-28T11:09:14.671Z,31.30
2017-05-28T11:11:43.767Z,31.50
2017-05-28T11:14:12.861Z,31.80
2017-05-28T11:16:41.999Z,31.90
2017-05-28T11:19:11.108Z,32.10
2017-05-28T11:21:41.787Z,32.00
2017-05-28T11:24:10.882Z,31.90
2017-05-28T11:26:39.992Z,31.60
2017-05-28T11:29:09.115Z,31.40
2017-05-28T11:31:38.366Z,31.10
2017-05-28T11:34:07.443Z,30.70
2017-05-28T11:36:36.531Z,30.70
2017-05-28T11:39:05.629Z,30.70
2017-05-28T11:41:34.713Z,30.40
2017-05-28T11:44:04.284Z,29.90
2017-05-28T11:46:33.399Z,29.60
2017-05-28T11:49:02.480Z,29.50
2017-05-28T11:51:31.661Z,29.40
2017-05-28T11:54:00.757Z,29.40
2017-05-28T11:56:29.979Z,29.30
2017-05-28T11:58:59.056Z,29.40
2017-05-28T12:01:28.279Z,29.40
2017-05-28T12:03:57.389Z,29.30
2017-05-28T12:06:26.491Z,29.20
2017-05-28T12:08:54.821Z,29.20
2017-05-28T12:11:23.902Z,29.20
2017-05-28T12:13:52.386Z,29.10
2017-05-28T12:16:21.483Z,28.80
2017-05-28T12:18:50.573Z,28.90
2017-05-28T12:21:19.675Z,29.10
2017-05-28T12:23:48.774Z,29.30
2017-05-28T12:26:17.990Z,29.70
2017-05-28T12:28:47.075Z,30.00
2017-05-28T12:31:16.155Z,30.40
2017-05-28T12:33:45.264Z,30.50
2017-05-28T12:36:14.383Z,30.60
2017-05-28T12:38:43.596Z,30.30
2017-05-28T12:41:12.682Z,30.30
2017-05-28T12:43:41.777Z,30.20
2017-05-28T12:46:11.124Z,30.20
2017-05-28T12:48:40.223Z,30.10
2017-05-28T12:51:09.334Z,30.00
2017-05-28T12:53:39.381Z,29.70
2017-05-28T12:56:08.471Z,29.70
2017-05-28T12:58:37.571Z,30.00
2017-05-28T13:01:06.790Z,30.00
2017-05-28T13:03:35.863Z,30.10
2017-05-28T13:06:05.220Z,30.30
2017-05-28T13:08:34.549Z,30.40
2017-05-28T13:11:03.671Z,30.30
2017-05-28T13:13:32.899Z,30.20
2017-05-28T13:16:01.991Z,30.10
2017-05-28T13:18:31.083Z,30.00
2017-05-28T13:21:00.216Z,29.90
2017-05-28T13:23:29.307Z,29.80
2017-05-28T13:25:58.582Z,29.70
2017-05-28T13:28:27.697Z,29.70
2017-05-28T13:30:56.791Z,29.70
2017-05-28T13:33:25.889Z,29.70
2017-05-28T13:35:54.958Z,29.50
2017-05-28T13:38:23.428Z,29.50
2017-05-28T13:40:52.495Z,29.20
2017-05-28T13:43:21.574Z,29.10
2017-05-28T13:45:50.792Z,28.90
2017-05-28T13:48:19.880Z,29.00
2017-05-28T13:50:48.969Z,29.00
2017-05-28T13:53:18.311Z,28.90
2017-05-28T13:55:47.395Z,29.00
2017-05-28T13:58:16.511Z,29.40
2017-05-28T14:00:45.611Z,29.80
2017-05-28T14:03:14.699Z,29.60
2017-05-28T14:05:43.831Z,29.50
2017-05-28T14:08:12.950Z,29.30
2017-05-28T14:10:42.069Z,29.30
2017-05-28T14:13:11.181Z,29.30
2017-05-28T14:15:40.299Z,29.40
2017-05-28T14:18:09.772Z,29.60
2017-05-28T14:20:38.847Z,29.90
2017-05-28T14:23:07.940Z,30.00
2017-05-28T14:25:37.178Z,30.40
2017-05-28T14:28:06.268Z,30.60
2017-05-28T14:30:35.419Z,30.80
2017-05-28T14:33:04.804Z,31.10
2017-05-28T14:35:34.308Z,31.20
2017-05-28T14:38:04.030Z,31.40
2017-05-28T14:40:33.775Z,31.30
2017-05-28T14:43:02.885Z,31.00
2017-05-28T14:45:32.062Z,30.80
2017-05-28T14:48:01.170Z,30.60
2017-05-28T14:50:30.429Z,30.40
2017-05-28T14:53:00.306Z,30.50
2017-05-28T14:55:28.759Z,30.50
2017-05-28T14:57:58.117Z,30.70
2017-05-28T15:00:27.267Z,30.70
2017-05-28T15:02:55.578Z,30.60
2017-05-28T15:05:23.923Z,31.10
2017-05-28T15:07:53.920Z,31.60
2017-05-28T15:10:23.126Z,31.80
2017-05-28T15:12:52.236Z,32.00
2017-05-28T15:15:21.329Z,33.10
2017-05-28T15:17:51.024Z,34.00
2017-05-28T15:20:20.178Z,34.40
2017-05-28T15:22:49.513Z,34.00
2017-05-28T15:25:18.643Z,33.60
2017-05-28T15:27:47.764Z,33.20
2017-05-28T15:30:17.245Z,33.10
2017-05-28T15:32:46.492Z,33.00
2017-05-28T15:35:15.618Z,33.10
2017-05-28T15:37:44.743Z,33.60
2017-05-28T15:40:13.876Z,34.80
2017-05-28T15:42:43.203Z,35.80
2017-05-28T15:45:11.571Z,35.70
2017-05-28T15:47:41.124Z,37.00
2017-05-28T15:50:11.149Z,37.10
2017-05-28T15:52:40.300Z,37.60
2017-05-28T15:55:09.558Z,37.50
2017-05-28T15:57:38.767Z,37.30
2017-05-28T16:00:08.135Z,37.00
2017-05-28T16:02:37.345Z,36.60
2017-05-28T16:05:06.447Z,36.60
2017-05-28T16:07:36.384Z,36.70
2017-05-28T16:10:05.501Z,36.70
2017-05-28T16:12:34.617Z,36.20
2017-05-28T16:15:03.748Z,35.80
2017-05-28T16:17:32.839Z,35.60
2017-05-28T16:20:01.930Z,35.60
2017-05-28T16:22:31.055Z,36.20
2017-05-28T16:24:59.568Z,36.10
2017-05-28T16:27:28.695Z,36.40
2017-05-28T16:29:57.812Z,36.40
2017-05-28T16:32:26.947Z,36.30
2017-05-28T16:34:56.076Z,35.90
2017-05-28T16:37:25.434Z,35.60
2017-05-28T16:39:54.551Z,35.50
2017-05-28T16:42:23.691Z,35.50
2017-05-28T16:44:52.832Z,35.30
2017-05-28T16:47:21.948Z,34.90
2017-05-28T16:49:51.641Z,35.00
2017-05-28T16:52:19.984Z,34.90
2017-05-28T16:54:49.216Z,35.60
2017-05-28T16:57:18.329Z,36.10
2017-05-28T16:59:46.661Z,36.10
2017-05-28T17:02:16.634Z,37.30
2017-05-28T17:04:45.833Z,37.60
2017-05-28T17:07:15.409Z,36.90
2017-05-28T17:09:44.504Z,36.50
2017-05-28T17:12:13.613Z,35.90
2017-05-28T17:14:42.719Z,34.80
2017-05-28T17:17:11.807Z,34.10
2017-05-28T17:19:40.959Z,33.80
2017-05-28T17:22:10.059Z,34.00
2017-05-28T17:24:39.252Z,34.30
2017-05-28T17:27:08.344Z,34.60
2017-05-28T17:29:37.767Z,34.60
2017-05-28T17:32:06.867Z,34.60
2017-05-28T17:34:35.967Z,34.70
2017-05-28T17:37:05.183Z,34.70
2017-05-28T17:39:34.715Z,34.40
2017-05-28T17:42:03.794Z,34.40
2017-05-28T17:44:32.928Z,34.60
2017-05-28T17:47:02.000Z,34.80
2017-05-28T17:49:32.044Z,34.50
2017-05-28T17:52:01.149Z,33.90
2017-05-28T17:54:30.328Z,33.00
2017-05-28T17:56:59.745Z,32.00
2017-05-28T17:59:28.832Z,31.60
2017-05-28T18:01:57.905Z,31.00
2017-05-28T18:07:01.800Z,29.90
2017-05-28T18:09:31.017Z,29.50
2017-05-28T18:12:00.131Z,29.20
2017-05-28T18:14:29.220Z,28.90
2017-05-28T18:16:58.356Z,28.60
2017-05-28T18:19:27.451Z,28.40
2017-05-28T18:21:56.883Z,28.20
2017-05-28T18:24:25.954Z,28.00
2017-05-28T18:26:55.030Z,27.90
2017-05-28T18:29:24.126Z,27.90
2017-05-28T18:31:53.232Z,27.80
2017-05-28T18:34:22.817Z,27.90
2017-05-28T18:36:51.900Z,27.80
2017-05-28T18:39:21.009Z,27.70
2017-05-28T18:41:50.099Z,27.80
2017-05-28T18:44:19.163Z,27.80
2017-05-28T18:46:48.259Z,27.80
2017-05-28T18:49:17.360Z,27.80
2017-05-28T18:51:46.586Z,27.60
2017-05-28T18:54:15.661Z,27.50
2017-05-28T18:56:44.727Z,27.30
2017-05-28T18:59:13.827Z,27.20
2017-05-28T19:01:42.900Z,27.10
2017-05-28T19:04:12.001Z,27.00
2017-05-28T19:06:41.086Z,26.90
2017-05-28T19:09:10.566Z,26.80
2017-05-28T19:11:39.632Z,26.60
2017-05-28T19:14:08.736Z,26.50
2017-05-28T19:16:37.924Z,26.40
2017-05-28T19:19:07.006Z,26.30
2017-05-28T19:21:36.203Z,26.10
2017-05-28T19:24:05.280Z,26.00
2017-05-28T19:26:34.358Z,25.70
2017-05-28T19:29:03.858Z,25.50
2017-05-28T19:31:32.928Z,25.40
2017-05-28T19:34:02.415Z,25.40
2017-05-28T19:36:31.463Z,25.20
2017-05-28T19:39:00.539Z,25.20
2017-05-28T19:41:29.645Z,25.10
2017-05-28T19:43:58.719Z,25.00
2017-05-28T19:46:27.851Z,24.90
2017-05-28T19:48:56.936Z,24.80
2017-05-28T19:51:26.172Z,24.80
2017-05-28T19:53:55.251Z,24.70
2017-05-28T19:56:24.349Z,24.70
2017-05-28T19:58:53.443Z,24.60
2017-05-28T20:01:22.507Z,24.50
2017-05-28T20:03:51.714Z,24.40
2017-05-28T20:06:20.798Z,24.30
2017-05-28T20:08:49.871Z,24.30
2017-05-28T20:11:19.088Z,24.20
2017-05-28T20:13:48.159Z,24.10
2017-05-28T20:16:17.219Z,24.10
2017-05-28T20:18:46.328Z,24.00
2017-05-28T20:21:15.390Z,24.00
2017-05-28T20:23:44.921Z,23.90
2017-05-28T20:26:14.024Z,23.90
2017-05-28T20:28:43.140Z,23.80
2017-05-28T20:31:12.235Z,23.80
2017-05-28T20:33:41.311Z,23.70
2017-05-28T20:36:10.403Z,23.70
2017-05-28T20:38:39.528Z,23.70
2017-05-28T20:41:08.576Z,23.70
2017-05-28T20:43:37.660Z,23.70
2017-05-28T20:46:06.862Z,23.70
2017-05-28T20:48:35.956Z,23.70
2017-05-28T20:51:05.030Z,23.70
2017-05-28T20:53:34.148Z,23.60
2017-05-28T20:56:03.249Z,23.60
2017-05-28T20:58:32.663Z,23.60
2017-05-28T21:01:01.719Z,23.50
2017-05-28T21:03:30.784Z,23.50
2017-05-28T21:06:00.841Z,23.40
2017-05-28T21:08:29.917Z,23.40
2017-05-28T21:10:59.060Z,23.40
2017-05-28T21:13:28.131Z,23.40
2017-05-28T21:15:57.560Z,23.40
2017-05-28T21:18:26.976Z,23.40
2017-05-28T21:20:56.046Z,23.40
2017-05-28T21:23:25.417Z,23.40
2017-05-28T21:25:54.483Z,23.40
2017-05-28T21:28:23.550Z,23.40
2017-05-28T21:30:52.647Z,23.40
2017-05-28T21:33:21.702Z,23.40
2017-05-28T21:35:50.951Z,23.40
2017-05-28T21:38:20.024Z,23.50
2017-05-28T21:40:49.107Z,23.50
2017-05-28T21:43:18.323Z,23.60
2017-05-28T21:45:47.404Z,23.60
2017-05-28T21:48:16.531Z,23.60
2017-05-28T21:50:45.653Z,23.60
2017-05-28T21:53:14.739Z,23.70
2017-05-28T21:55:43.858Z,23.70
2017-05-28T21:58:12.917Z,23.60
2017-05-28T22:00:42.399Z,23.50
2017-05-28T22:03:11.460Z,23.50
2017-05-28T22:05:40.572Z,23.40
2017-05-28T22:08:09.683Z,23.40
2017-05-28T22:10:38.767Z,23.40
2017-05-28T22:13:07.885Z,23.40
2017-05-28T22:15:36.971Z,23.30
2017-05-28T22:18:06.187Z,23.20
2017-05-28T22:20:35.268Z,23.10
2017-05-28T22:23:04.343Z,23.10
2017-05-28T22:25:33.451Z,23.00
2017-05-28T22:28:02.534Z,23.00
2017-05-28T22:30:31.623Z,22.90
2017-05-28T22:33:00.715Z,22.90
2017-05-28T22:35:30.086Z,22.90
2017-05-28T22:37:59.174Z,22.90
2017-05-28T22:40:28.268Z,22.80
2017-05-28T22:42:57.363Z,22.80
2017-05-28T22:45:26.510Z,22.70
2017-05-28T22:47:55.657Z,22.60
2017-05-28T22:50:24.699Z,22.50
2017-05-28T22:52:53.920Z,22.30
2017-05-28T22:55:23.031Z,22.20
2017-05-28T22:57:52.103Z,22.10
2017-05-28T23:00:21.310Z,22.10
2017-05-28T23:02:50.387Z,22.00
2017-05-28T23:05:19.487Z,22.00
2017-05-28T23:07:48.717Z,21.90
2017-05-28T23:10:17.796Z,21.80
2017-05-28T23:12:46.875Z,21.80
2017-05-28T23:15:16.003Z,21.80
2017-05-28T23:17:45.087Z,21.70
2017-05-28T23:20:14.383Z,21.70
2017-05-28T23:22:43.466Z,21.70
2017-05-28T23:25:12.934Z,21.70
2017-05-28T23:27:42.010Z,21.60
2017-05-28T23:30:11.079Z,21.60
2017-05-28T23:32:40.188Z,21.50
2017-05-28T23:35:09.271Z,21.50
2017-05-28T23:37:38.371Z,21.40
2017-05-28T23:40:07.455Z,21.40
2017-05-28T23:42:36.671Z,21.30
2017-05-28T23:45:05.779Z,21.30
2017-05-28T23:47:35.125Z,21.20
2017-05-28T23:50:04.240Z,21.20
2017-05-28T23:52:33.351Z,21.00
2017-05-28T23:55:02.898Z,21.00
2017-05-28T23:57:31.973Z,21.00
